Time,TemperatureF,DewpointF,PressureIn,WindDirection,WindDirectionDegrees,WindSpeedMPH,WindSpeedGustMPH,Humidity,HourlyPrecipIn,Conditions,Clouds,dailyrainin,SoftwareType,DateUTC
2013-05-30 00:01:00,44.9,41.9,29.66,North,355,2.0,2.0,89,0.00,,---,0.00,VWS V13.01,2013-05-30 06:01:00,
2013-05-30 00:06:00,44.8,41.5,29.66,ENE,57,1.0,1.0,88,0.00,,---,0.00,VWS V13.01,2013-05-30 06:06:00,
2013-05-30 00:11:00,44.6,41.0,29.66,NE,47,0.0,0.0,87,0.00,,---,0.00,VWS V13.01,2013-05-30 06:11:00,
2013-05-30 00:16:00,44.6,41.0,29.66,NE,39,0.0,2.0,87,0.00,,---,0.00,VWS V13.01,2013-05-30 06:16:00,
2013-05-30 00:21:00,44.5,40.9,29.66,NE,39,0.0,0.0,87,0.00,,---,0.00,VWS V13.01,2013-05-30 06:21:00,
2013-05-30 00:27:00,44.3,40.7,29.66,NE,39,0.0,2.0,87,0.00,,---,0.00,VWS V13.01,2013-05-30 06:27:00,
2013-05-30 00:32:00,44.3,40.7,29.67,NNW,335,0.0,0.0,87,0.00,,---,0.00,VWS V13.01,2013-05-30 06:32:00,
2013-05-30 00:37:00,44.3,40.7,29.67,ENE,59,0.0,2.0,87,0.00,,---,0.00,VWS V13.01,2013-05-30 06:37:00,
2013-05-30 00:42:00,44.3,40.7,29.67,ENE,59,0.0,0.0,87,0.00,,---,0.00,VWS V13.01,2013-05-30 06:42:00,
2013-05-30 00:47:00,44.3,40.7,29.68,NE,36,0.0,4.0,87,0.00,,---,0.00,VWS V13.01,2013-05-30 06:47:00,
2013-05-30 00:52:00,44.3,40.1,29.68,NW,316,4.0,4.0,85,0.00,,---,0.00,VWS V13.01,2013-05-30 06:52:00,
2013-05-30 00:57:00,44.3,40.1,29.68,NW,317,0.0,0.0,85,0.00,,---,0.00,VWS V13.01,2013-05-30 06:57:00,
2013-05-30 01:02:00,44.3,40.7,29.68,NW,317,0.0,0.0,87,0.00,,---,0.00,VWS V13.01,2013-05-30 07:02:00,
2013-05-30 01:08:00,44.3,40.1,29.68,NW,315,0.0,0.0,85,0.00,,---,0.00,VWS V13.01,2013-05-30 07:08:00,
2013-05-30 01:13:00,44.3,39.8,29.68,North,5,0.0,3.0,84,0.00,,---,0.00,VWS V13.01,2013-05-30 07:13:00,
2013-05-30 01:18:00,44.3,40.4,29.68,North,5,0.0,0.0,86,0.00,,---,0.00,VWS V13.01,2013-05-30 07:18:00,
2013-05-30 01:23:00,44.2,39.7,29.68,NNE,12,0.0,3.0,84,0.00,,---,0.00,VWS V13.01,2013-05-30 07:23:00,
2013-05-30 01:28:00,44.1,39.9,29.68,SE,142,0.0,3.0,85,0.00,,---,0.00,VWS V13.01,2013-05-30 07:28:00,
2013-05-30 01:33:00,44.1,38.3,29.67,SE,128,4.0,5.0,80,0.00,,---,0.00,VWS V13.01,2013-05-30 07:33:00,
2013-05-30 01:38:00,44.2,38.1,29.67,NW,313,2.0,7.0,79,0.00,,---,0.00,VWS V13.01,2013-05-30 07:38:00,
2013-05-30 01:43:00,44.5,37.8,29.67,NNW,337,6.0,13.0,77,0.00,,---,0.00,VWS V13.01,2013-05-30 07:43:00,
2013-05-30 01:48:00,44.6,37.5,29.67,NNE,13,2.0,5.0,76,0.00,,---,0.00,VWS V13.01,2013-05-30 07:48:00,
2013-05-30 01:53:00,44.6,37.8,29.67,NNW,331,4.0,7.0,77,0.00,,---,0.00,VWS V13.01,2013-05-30 07:53:00,
2013-05-30 01:59:00,44.5,37.1,29.67,North,10,2.0,10.0,75,0.00,,---,0.00,VWS V13.01,2013-05-30 07:59:00,
2013-05-30 02:04:00,44.3,37.2,29.68,NW,326,2.0,6.0,76,0.00,,---,0.00,VWS V13.01,2013-05-30 08:04:00,
2013-05-30 02:09:00,44.2,36.5,29.68,North,360,6.0,11.0,74,0.00,,---,0.00,VWS V13.01,2013-05-30 08:09:00,
2013-05-30 02:14:00,44.2,36.5,29.68,NNW,340,2.0,9.0,74,0.00,,---,0.00,VWS V13.01,2013-05-30 08:14:00,
2013-05-30 02:19:00,44.2,36.8,29.67,NE,38,4.0,6.0,75,0.00,,---,0.00,VWS V13.01,2013-05-30 08:19:00,
2013-05-30 02:24:00,44.2,36.5,29.67,East,79,3.0,10.0,74,0.00,,---,0.00,VWS V13.01,2013-05-30 08:24:00,
2013-05-30 02:29:00,44.2,36.5,29.67,NNE,28,1.0,6.0,74,0.00,,---,0.00,VWS V13.01,2013-05-30 08:29:00,
2013-05-30 02:34:00,44.2,36.8,29.66,North,350,3.0,4.0,75,0.00,,---,0.00,VWS V13.01,2013-05-30 08:34:00,
2013-05-30 02:39:00,44.1,36.0,29.66,NE,42,0.0,7.0,73,0.00,,---,0.00,VWS V13.01,2013-05-30 08:39:00,
2013-05-30 02:44:00,44.1,35.7,29.66,NE,51,2.0,6.0,72,0.00,,---,0.00,VWS V13.01,2013-05-30 08:44:00,
2013-05-30 02:49:00,44.1,36.0,29.65,NE,56,3.0,6.0,73,0.00,,---,0.00,VWS V13.01,2013-05-30 08:49:00,
2013-05-30 02:55:00,44.1,35.7,29.65,NE,35,3.0,7.0,72,0.00,,---,0.00,VWS V13.01,2013-05-30 08:55:00,
2013-05-30 03:00:00,44.1,35.7,29.65,NE,55,3.0,7.0,72,0.00,,---,0.00,VWS V13.01,2013-05-30 09:00:00,
2013-05-30 03:05:00,44.2,35.8,29.66,NE,42,1.0,5.0,72,0.00,,---,0.00,VWS V13.01,2013-05-30 09:05:00,
2013-05-30 03:10:00,44.2,35.4,29.66,NE,41,3.0,7.0,71,0.00,,---,0.00,VWS V13.01,2013-05-30 09:10:00,
2013-05-30 03:15:00,44.2,35.8,29.67,NW,323,3.0,7.0,72,0.00,,---,0.00,VWS V13.01,2013-05-30 09:15:00,
2013-05-30 03:20:00,44.3,35.5,29.67,NW,319,0.0,6.0,71,0.00,,---,0.00,VWS V13.01,2013-05-30 09:20:00,
2013-05-30 03:25:00,44.5,34.6,29.67,ENE,75,2.0,6.0,68,0.00,,---,0.00,VWS V13.01,2013-05-30 09:25:00,
2013-05-30 03:30:00,44.5,35.3,29.67,ENE,63,0.0,6.0,70,0.00,,---,0.00,VWS V13.01,2013-05-30 09:30:00,
2013-05-30 03:35:00,44.6,35.8,29.67,ENE,78,1.0,4.0,71,0.00,,---,0.00,VWS V13.01,2013-05-30 09:35:00,
2013-05-30 03:41:00,44.6,36.2,29.67,NE,46,0.0,5.0,72,0.00,,---,0.00,VWS V13.01,2013-05-30 09:41:00,
2013-05-30 03:46:00,44.6,36.2,29.67,NNE,25,0.0,3.0,72,0.00,,---,0.00,VWS V13.01,2013-05-30 09:46:00,
2013-05-30 03:51:00,44.5,35.7,29.67,North,10,3.0,5.0,71,0.00,,---,0.00,VWS V13.01,2013-05-30 09:51:00,
2013-05-30 03:56:00,44.6,35.8,29.67,NNW,329,0.0,6.0,71,0.00,,---,0.00,VWS V13.01,2013-05-30 09:56:00,
2013-05-30 04:01:00,44.6,35.8,29.67,NNE,26,4.0,4.0,71,0.00,,---,0.00,VWS V13.01,2013-05-30 10:01:00,
2013-05-30 04:06:00,44.8,35.6,29.67,NNW,341,2.0,5.0,70,0.00,,---,0.00,VWS V13.01,2013-05-30 10:06:00,
2013-05-30 04:11:00,44.8,36.0,29.67,NE,51,1.0,3.0,71,0.00,,---,0.00,VWS V13.01,2013-05-30 10:11:00,
2013-05-30 04:16:00,44.8,35.6,29.70,North,355,2.0,5.0,70,0.00,,---,0.00,VWS V13.01,2013-05-30 10:16:00,
2013-05-30 04:21:00,44.9,35.0,29.70,NW,320,0.0,3.0,68,0.00,,---,0.00,VWS V13.01,2013-05-30 10:21:00,
2013-05-30 04:26:00,44.9,35.4,29.70,ENE,78,0.0,4.0,69,0.00,,---,0.00,VWS V13.01,2013-05-30 10:26:00,
2013-05-30 04:31:00,44.9,35.4,29.70,WNW,300,0.0,4.0,69,0.00,,---,0.00,VWS V13.01,2013-05-30 10:31:00,
2013-05-30 04:36:00,45.1,34.0,29.70,West,270,2.0,4.0,65,0.00,,---,0.00,VWS V13.01,2013-05-30 10:36:00,
2013-05-30 04:41:00,45.2,34.9,29.70,WNW,298,3.0,4.0,67,0.00,,---,0.00,VWS V13.01,2013-05-30 10:41:00,
2013-05-30 04:46:00,45.4,35.5,29.70,NNW,338,0.0,0.0,68,0.00,,---,0.00,VWS V13.01,2013-05-30 10:46:00,
2013-05-30 04:52:00,45.4,35.1,29.70,ESE,105,2.0,4.0,67,0.00,,---,0.00,VWS V13.01,2013-05-30 10:52:00,
2013-05-30 04:57:00,45.4,35.8,29.70,NW,304,0.0,0.0,69,0.00,,---,0.00,VWS V13.01,2013-05-30 10:57:00,
2013-05-30 05:02:00,45.4,35.5,29.71,NNW,336,1.0,3.0,68,0.00,,---,0.00,VWS V13.01,2013-05-30 11:02:00,
2013-05-30 05:07:00,45.2,35.7,29.71,West,266,0.0,0.0,69,0.00,,---,0.00,VWS V13.01,2013-05-30 11:07:00,
2013-05-30 05:12:00,45.2,35.7,29.71,West,264,0.0,0.0,69,0.00,,---,0.00,VWS V13.01,2013-05-30 11:12:00,
2013-05-30 05:17:00,45.1,36.3,29.71,West,276,0.0,1.0,71,0.00,,---,0.00,VWS V13.01,2013-05-30 11:17:00,
2013-05-30 05:22:00,45.1,35.5,29.71,North,5,5.0,5.0,69,0.00,,---,0.00,VWS V13.01,2013-05-30 11:22:00,
2013-05-30 05:27:00,45.1,34.4,29.71,NW,326,2.0,4.0,66,0.00,,---,0.00,VWS V13.01,2013-05-30 11:27:00,
2013-05-30 05:33:00,45.1,34.8,29.72,ESE,109,0.0,4.0,67,0.00,,---,0.00,VWS V13.01,2013-05-30 11:33:00,
2013-05-30 05:38:00,45.1,35.2,29.72,NNW,340,2.0,4.0,68,0.00,,---,0.00,VWS V13.01,2013-05-30 11:38:00,
2013-05-30 05:43:00,45.1,35.2,29.72,North,351,0.0,3.0,68,0.00,,---,0.00,VWS V13.01,2013-05-30 11:43:00,
2013-05-30 05:48:00,45.1,35.2,29.72,NE,38,0.0,2.0,68,0.00,,---,0.00,VWS V13.01,2013-05-30 11:48:00,
2013-05-30 05:53:00,45.1,35.2,29.72,WNW,301,0.0,3.0,68,0.00,,---,0.00,VWS V13.01,2013-05-30 11:53:00,
2013-05-30 05:58:00,45.1,34.4,29.72,NNE,22,0.0,5.0,66,0.00,,---,0.00,VWS V13.01,2013-05-30 11:58:00,
2013-05-30 06:03:00,44.9,33.9,29.72,NE,49,0.0,4.0,65,0.00,,---,0.00,VWS V13.01,2013-05-30 12:03:00,
2013-05-30 06:08:00,45.1,34.0,29.72,North,355,0.0,2.0,65,0.00,,---,0.00,VWS V13.01,2013-05-30 12:08:00,
2013-05-30 06:14:00,45.1,33.7,29.72,NE,38,0.0,1.0,64,0.00,,---,0.00,VWS V13.01,2013-05-30 12:14:00,
2013-05-30 06:19:00,45.1,33.3,29.73,NNE,22,3.0,6.0,63,0.00,,---,0.00,VWS V13.01,2013-05-30 12:19:00,
2013-05-30 06:24:00,45.1,33.7,29.73,South,190,0.0,1.0,64,0.00,,---,0.00,VWS V13.01,2013-05-30 12:24:00,
2013-05-30 06:29:00,45.2,34.5,29.73,East,94,0.0,0.0,66,0.00,,---,0.00,VWS V13.01,2013-05-30 12:29:00,
2013-05-30 06:34:00,45.2,33.4,29.74,NNW,331,0.0,4.0,63,0.00,,---,0.00,VWS V13.01,2013-05-30 12:34:00,
2013-05-30 06:39:00,45.2,34.2,29.74,NE,40,0.0,3.0,65,0.00,,---,0.00,VWS V13.01,2013-05-30 12:39:00,
2013-05-30 06:44:00,45.2,34.5,29.74,NNE,17,0.0,0.0,66,0.00,,---,0.00,VWS V13.01,2013-05-30 12:44:00,
2013-05-30 06:49:00,45.2,34.9,29.74,NNE,32,0.0,2.0,67,0.00,,---,0.00,VWS V13.01,2013-05-30 12:49:00,
2013-05-30 06:54:00,45.1,34.0,29.74,NE,49,0.0,1.0,65,0.00,,---,0.00,VWS V13.01,2013-05-30 12:54:00,
2013-05-30 06:59:00,45.1,34.8,29.74,East,96,2.0,3.0,67,0.00,,---,0.00,VWS V13.01,2013-05-30 12:59:00,
2013-05-30 07:05:00,45.1,34.0,29.74,NW,323,0.0,3.0,65,0.00,,---,0.00,VWS V13.01,2013-05-30 13:05:00,
2013-05-30 07:10:00,45.1,34.0,29.74,NW,320,0.0,1.0,65,0.00,,---,0.00,VWS V13.01,2013-05-30 13:10:00,
2013-05-30 07:15:00,45.2,34.9,29.74,NNE,33,0.0,4.0,67,0.00,,---,0.00,VWS V13.01,2013-05-30 13:15:00,
2013-05-30 07:20:00,45.2,33.8,29.79,West,259,2.0,5.0,64,0.00,,---,0.00,VWS V13.01,2013-05-30 13:20:00,
2013-05-30 07:25:00,45.4,34.0,29.79,NW,325,0.0,3.0,64,0.00,,---,0.00,VWS V13.01,2013-05-30 13:25:00,
2013-05-30 07:30:00,45.5,35.6,29.79,North,11,1.0,4.0,68,0.00,,---,0.00,VWS V13.01,2013-05-30 13:30:00,
2013-05-30 07:35:00,45.5,35.2,29.79,NNW,336,0.0,2.0,67,0.00,,---,0.00,VWS V13.01,2013-05-30 13:35:00,
2013-05-30 07:40:00,45.7,35.0,29.79,ENE,64,0.0,3.0,66,0.00,,---,0.00,VWS V13.01,2013-05-30 13:40:00,
2013-05-30 07:45:00,45.7,34.6,29.80,SE,124,0.0,4.0,65,0.00,,---,0.00,VWS V13.01,2013-05-30 13:45:00,
2013-05-30 07:50:00,45.8,34.7,29.80,ESE,111,0.0,1.0,65,0.00,,---,0.00,VWS V13.01,2013-05-30 13:50:00,
2013-05-30 07:55:00,45.8,33.9,29.80,NNW,344,0.0,3.0,63,0.00,,---,0.00,VWS V13.01,2013-05-30 13:55:00,
2013-05-30 08:00:00,46.0,34.5,29.80,NE,49,0.0,6.0,64,0.00,,---,0.00,VWS V13.01,2013-05-30 14:00:00,
2013-05-30 08:06:00,46.0,33.7,29.80,NNW,344,0.0,4.0,62,0.00,,---,0.00,VWS V13.01,2013-05-30 14:06:00,
2013-05-30 08:11:00,46.1,34.6,29.80,ENE,72,0.0,0.0,64,0.00,,---,0.00,VWS V13.01,2013-05-30 14:11:00,
2013-05-30 08:16:00,46.1,35.4,29.80,East,80,0.0,1.0,66,0.00,,---,0.00,VWS V13.01,2013-05-30 14:16:00,
2013-05-30 08:21:00,46.2,34.7,29.80,East,88,0.0,2.0,64,0.00,,---,0.00,VWS V13.01,2013-05-30 14:21:00,
2013-05-30 08:26:00,46.4,36.4,29.80,NE,34,2.0,2.0,68,0.00,,---,0.00,VWS V13.01,2013-05-30 14:26:00,
2013-05-30 08:31:00,46.4,34.9,29.81,East,101,3.0,3.0,64,0.00,,---,0.00,VWS V13.01,2013-05-30 14:31:00,
2013-05-30 08:36:00,46.5,35.0,29.81,East,96,0.0,3.0,64,0.00,,---,0.00,VWS V13.01,2013-05-30 14:36:00,
2013-05-30 08:41:00,46.7,35.2,29.81,East,89,0.0,4.0,64,0.00,,---,0.00,VWS V13.01,2013-05-30 14:41:00,
2013-05-30 08:46:00,46.8,35.7,29.81,NE,36,0.0,0.0,65,0.00,,---,0.00,VWS V13.01,2013-05-30 14:46:00,
2013-05-30 08:51:00,47.0,35.5,29.81,NNE,28,6.0,6.0,64,0.00,,---,0.00,VWS V13.01,2013-05-30 14:51:00,
2013-05-30 08:56:00,47.1,34.8,29.81,North,5,0.0,2.0,62,0.00,,---,0.00,VWS V13.01,2013-05-30 14:56:00,
2013-05-30 09:01:00,47.3,35.8,29.81,North,360,0.0,0.0,64,0.00,,---,0.00,VWS V13.01,2013-05-30 15:01:00,
2013-05-30 09:06:00,47.6,35.2,29.81,North,355,1.0,3.0,62,0.00,,---,0.00,VWS V13.01,2013-05-30 15:06:00,
2013-05-30 09:11:00,47.7,34.9,29.81,NE,34,0.0,1.0,61,0.00,,---,0.00,VWS V13.01,2013-05-30 15:11:00,
2013-05-30 09:17:00,47.9,36.7,29.80,NNE,33,0.0,2.0,65,0.00,,---,0.00,VWS V13.01,2013-05-30 15:17:00,
2013-05-30 09:22:00,48.2,35.8,29.80,NE,40,0.0,0.0,62,0.00,,---,0.00,VWS V13.01,2013-05-30 15:22:00,
2013-05-30 09:27:00,48.5,36.1,29.80,NE,51,0.0,2.0,62,0.00,,---,0.00,VWS V13.01,2013-05-30 15:27:00,
2013-05-30 09:32:00,48.8,34.7,29.81,SW,225,0.0,3.0,58,0.00,,---,0.00,VWS V13.01,2013-05-30 15:32:00,
2013-05-30 09:37:00,48.9,36.5,29.81,NE,44,0.0,1.0,62,0.00,,---,0.00,VWS V13.01,2013-05-30 15:37:00,
2013-05-30 09:42:00,49.1,35.4,29.81,SSW,206,0.0,7.0,59,0.00,,---,0.00,VWS V13.01,2013-05-30 15:42:00,
2013-05-30 09:47:00,49.1,35.4,29.81,NNW,337,6.0,9.0,59,0.00,,---,0.00,VWS V13.01,2013-05-30 15:47:00,
2013-05-30 09:52:00,49.1,35.4,29.81,SSW,205,0.0,1.0,59,0.00,,---,0.00,VWS V13.01,2013-05-30 15:52:00,
2013-05-30 09:57:00,49.4,35.7,29.81,ENE,69,3.0,3.0,59,0.00,,---,0.00,VWS V13.01,2013-05-30 15:57:00,
2013-05-30 10:03:00,49.6,35.9,29.80,NNE,20,0.0,3.0,59,0.00,,---,0.00,VWS V13.01,2013-05-30 16:03:00,
2013-05-30 10:08:00,49.9,35.7,29.80,West,273,1.0,3.0,58,0.00,,---,0.00,VWS V13.01,2013-05-30 16:08:00,
2013-05-30 10:13:00,49.8,36.1,29.80,SE,141,0.0,1.0,59,0.00,,---,0.00,VWS V13.01,2013-05-30 16:13:00,
2013-05-30 10:18:00,49.8,36.5,29.81,SW,234,0.0,3.0,60,0.00,,---,0.00,VWS V13.01,2013-05-30 16:18:00,
2013-05-30 10:23:00,49.6,36.7,29.81,NNW,334,2.0,4.0,61,0.00,,---,0.00,VWS V13.01,2013-05-30 16:23:00,
2013-05-30 10:28:00,49.8,35.2,29.81,ENE,57,0.0,3.0,57,0.00,,---,0.00,VWS V13.01,2013-05-30 16:28:00,
2013-05-30 10:33:00,50.2,35.1,29.81,NNE,22,1.0,6.0,56,0.00,,---,0.00,VWS V13.01,2013-05-30 16:33:00,
2013-05-30 10:38:00,50.5,35.4,29.81,NNW,342,4.0,7.0,56,0.00,,---,0.00,VWS V13.01,2013-05-30 16:38:00,
2013-05-30 10:43:00,50.7,35.1,29.81,NNE,15,3.0,6.0,55,0.00,,---,0.00,VWS V13.01,2013-05-30 16:43:00,
2013-05-30 10:48:00,51.0,34.5,29.80,NNE,17,3.0,6.0,53,0.00,,---,0.00,VWS V13.01,2013-05-30 16:48:00,
2013-05-30 10:54:00,51.3,35.2,29.80,NW,322,0.0,6.0,54,0.00,,---,0.00,VWS V13.01,2013-05-30 16:54:00,
2013-05-30 10:59:00,51.3,34.8,29.80,NE,52,1.0,5.0,53,0.00,,---,0.00,VWS V13.01,2013-05-30 16:59:00,
2013-05-30 11:04:00,51.7,36.5,29.80,North,350,0.0,5.0,56,0.00,,---,0.00,VWS V13.01,2013-05-30 17:04:00,
2013-05-30 11:09:00,52.2,36.1,29.80,NE,44,0.0,6.0,54,0.00,,---,0.00,VWS V13.01,2013-05-30 17:09:00,
2013-05-30 11:14:00,52.9,38.1,29.80,North,360,0.0,4.0,57,0.00,,---,0.00,VWS V13.01,2013-05-30 17:14:00,
2013-05-30 11:19:00,53.5,35.8,29.79,NE,44,0.0,7.0,51,0.00,,---,0.00,VWS V13.01,2013-05-30 17:19:00,
2013-05-30 11:24:00,53.6,37.4,29.79,ESE,119,3.0,4.0,54,0.00,,---,0.00,VWS V13.01,2013-05-30 17:24:00,
2013-05-30 11:29:00,53.5,34.8,29.79,East,98,2.0,9.0,49,0.00,,---,0.00,VWS V13.01,2013-05-30 17:29:00,
2013-05-30 11:34:00,53.2,35.6,29.80,North,350,1.0,6.0,51,0.00,,---,0.00,VWS V13.01,2013-05-30 17:34:00,
2013-05-30 11:39:00,53.5,36.8,29.80,North,11,1.0,6.0,53,0.00,,---,0.00,VWS V13.01,2013-05-30 17:39:00,
2013-05-30 11:45:00,53.9,36.2,29.80,NE,44,6.0,10.0,51,0.00,,---,0.00,VWS V13.01,2013-05-30 17:45:00,
2013-05-30 11:50:00,54.1,34.9,29.79,WSW,241,0.0,8.0,48,0.00,,---,0.00,VWS V13.01,2013-05-30 17:50:00,
2013-05-30 11:55:00,54.1,36.4,29.79,East,84,0.0,11.0,51,0.00,,---,0.00,VWS V13.01,2013-05-30 17:55:00,
2013-05-30 12:00:00,54.1,35.4,29.80,East,80,3.0,9.0,49,0.00,,---,0.00,VWS V13.01,2013-05-30 18:00:00,
2013-05-30 12:05:00,54.2,35.5,29.80,SW,229,5.0,9.0,49,0.00,,---,0.00,VWS V13.01,2013-05-30 18:05:00,
2013-05-30 12:10:00,54.2,36.5,29.80,East,98,0.0,12.0,51,0.00,,---,0.00,VWS V13.01,2013-05-30 18:10:00,
2013-05-30 12:15:00,54.5,35.8,29.80,West,268,2.0,7.0,49,0.00,,---,0.00,VWS V13.01,2013-05-30 18:15:00,
2013-05-30 12:20:00,54.5,37.7,29.80,NNW,338,2.0,7.0,53,0.00,,---,0.00,VWS V13.01,2013-05-30 18:20:00,
2013-05-30 12:26:00,54.5,34.7,29.80,NE,35,0.0,12.0,47,0.00,,---,0.00,VWS V13.01,2013-05-30 18:26:00,
2013-05-30 12:31:00,54.4,35.7,29.81,NNW,346,2.0,10.0,49,0.00,,---,0.00,VWS V13.01,2013-05-30 18:31:00,
2013-05-30 12:36:00,55.1,37.8,29.81,NW,318,2.0,10.0,52,0.00,,---,0.00,VWS V13.01,2013-05-30 18:36:00,
2013-05-30 12:41:00,56.3,35.8,29.81,ENE,57,0.0,0.0,46,0.00,,---,0.00,VWS V13.01,2013-05-30 18:41:00,
2013-05-30 12:46:00,57.2,35.5,29.79,NW,317,2.0,4.0,44,0.00,,---,0.00,VWS V13.01,2013-05-30 18:46:00,
2013-05-30 12:51:00,57.6,36.4,29.79,NNE,29,4.0,8.0,45,0.00,,---,0.00,VWS V13.01,2013-05-30 18:51:00,
2013-05-30 12:56:00,58.3,38.2,29.79,North,5,4.0,10.0,47,0.00,,---,0.00,VWS V13.01,2013-05-30 18:56:00,
2013-05-30 13:01:00,59.0,39.4,29.78,North,350,4.0,12.0,48,0.00,,---,0.00,VWS V13.01,2013-05-30 19:01:00,
2013-05-30 13:06:00,59.2,33.6,29.78,WNW,300,4.0,4.0,38,0.00,,---,0.00,VWS V13.01,2013-05-30 19:06:00,
2013-05-30 13:12:00,58.6,38.5,29.78,NNE,12,1.0,10.0,47,0.00,,---,0.00,VWS V13.01,2013-05-30 19:12:00,
2013-05-30 13:17:00,58.9,34.6,29.78,East,82,1.0,5.0,40,0.00,,---,0.00,VWS V13.01,2013-05-30 19:17:00,
2013-05-30 13:22:00,58.9,34.6,29.78,NW,311,0.0,4.0,40,0.00,,---,0.00,VWS V13.01,2013-05-30 19:22:00,
2013-05-30 13:27:00,59.0,33.5,29.78,NE,51,2.0,10.0,38,0.00,,---,0.00,VWS V13.01,2013-05-30 19:27:00,
2013-05-30 13:32:00,58.1,35.7,29.79,NE,41,4.0,9.0,43,0.00,,---,0.00,VWS V13.01,2013-05-30 19:32:00,
2013-05-30 13:37:00,56.9,34.7,29.79,West,272,4.0,12.0,43,0.00,,---,0.00,VWS V13.01,2013-05-30 19:37:00,
2013-05-30 13:42:00,55.7,35.8,29.79,NNE,30,0.0,5.0,47,0.00,,---,0.00,VWS V13.01,2013-05-30 19:42:00,
2013-05-30 13:47:00,55.7,34.1,29.80,North,9,6.0,7.0,44,0.00,,---,0.00,VWS V13.01,2013-05-30 19:47:00,
2013-05-30 13:52:00,55.4,33.3,29.80,NW,317,2.0,12.0,43,0.00,,---,0.00,VWS V13.01,2013-05-30 19:52:00,
2013-05-30 13:57:00,55.1,35.2,29.80,East,94,0.0,9.0,47,0.00,,---,0.00,VWS V13.01,2013-05-30 19:57:00,
2013-05-30 14:03:00,55.3,36.5,29.81,South,173,2.0,12.0,49,0.00,,---,0.00,VWS V13.01,2013-05-30 20:03:00,
2013-05-30 14:08:00,54.7,36.9,29.81,NNE,19,0.0,5.0,51,0.00,,---,0.00,VWS V13.01,2013-05-30 20:08:00,
2013-05-30 14:13:00,54.5,36.8,29.81,NE,53,4.0,4.0,51,0.00,,---,0.00,VWS V13.01,2013-05-30 20:13:00,
2013-05-30 14:18:00,54.7,35.9,29.82,NE,36,0.0,7.0,49,0.00,,---,0.00,VWS V13.01,2013-05-30 20:18:00,
2013-05-30 14:23:00,54.7,33.8,29.82,East,98,0.0,18.0,45,0.00,,---,0.00,VWS V13.01,2013-05-30 20:23:00,
2013-05-30 14:28:00,55.0,36.7,29.82,NNE,17,3.0,6.0,50,0.00,,---,0.00,VWS V13.01,2013-05-30 20:28:00,
2013-05-30 14:33:00,56.2,34.6,29.81,NW,317,9.0,9.0,44,0.00,,---,0.00,VWS V13.01,2013-05-30 20:33:00,
2013-05-30 14:39:00,56.3,34.1,29.81,NNW,328,0.0,7.0,43,0.00,,---,0.00,VWS V13.01,2013-05-30 20:39:00,
2013-05-30 14:44:00,56.0,35.0,29.81,ESE,115,0.0,6.0,45,0.00,,---,0.00,VWS V13.01,2013-05-30 20:44:00,
2013-05-30 14:49:00,56.5,33.1,29.80,NNE,26,2.0,12.0,41,0.00,,---,0.00,VWS V13.01,2013-05-30 20:49:00,
2013-05-30 14:54:00,56.7,32.7,29.80,NNE,13,3.0,16.0,40,0.00,,---,0.00,VWS V13.01,2013-05-30 20:54:00,
2013-05-30 14:59:00,57.0,33.5,29.80,North,5,7.0,11.0,41,0.00,,---,0.00,VWS V13.01,2013-05-30 20:59:00,
2013-05-30 15:04:00,57.5,34.0,29.80,West,266,4.0,7.0,41,0.00,,---,0.00,VWS V13.01,2013-05-30 21:04:00,
2013-05-30 15:09:00,57.5,33.4,29.80,SSE,160,3.0,7.0,40,0.00,,---,0.00,VWS V13.01,2013-05-30 21:09:00,
2013-05-30 15:14:00,57.0,35.3,29.80,NNE,16,6.0,11.0,44,0.00,,---,0.00,VWS V13.01,2013-05-30 21:14:00,
2013-05-30 15:20:00,57.2,34.3,29.81,WNW,289,3.0,6.0,42,0.00,,---,0.00,VWS V13.01,2013-05-30 21:20:00,
2013-05-30 15:25:00,56.5,31.9,29.81,North,355,7.0,9.0,39,0.00,,---,0.00,VWS V13.01,2013-05-30 21:25:00,
2013-05-30 15:30:00,56.2,31.0,29.82,NW,313,2.0,8.0,38,0.00,,---,0.00,VWS V13.01,2013-05-30 21:30:00,
2013-05-30 15:35:00,55.6,29.1,29.82,SW,223,3.0,10.0,36,0.00,,---,0.00,VWS V13.01,2013-05-30 21:35:00,
2013-05-30 15:40:00,55.4,31.5,29.82,North,355,1.0,7.0,40,0.00,,---,0.00,VWS V13.01,2013-05-30 21:40:00,
2013-05-30 15:45:00,55.6,32.9,29.82,NNW,327,7.0,11.0,42,0.00,,---,0.00,VWS V13.01,2013-05-30 21:45:00,
2013-05-30 15:50:00,56.2,33.4,29.82,East,96,0.0,6.0,42,0.00,,---,0.00,VWS V13.01,2013-05-30 21:50:00,
2013-05-30 15:56:00,56.5,33.1,29.82,West,274,1.0,13.0,41,0.00,,---,0.00,VWS V13.01,2013-05-30 21:56:00,
2013-05-30 16:01:00,56.5,33.1,29.81,SW,214,0.0,10.0,41,0.00,,---,0.00,VWS V13.01,2013-05-30 22:01:00,
2013-05-30 16:06:00,56.5,35.4,29.81,North,9,0.0,5.0,45,0.00,,---,0.00,VWS V13.01,2013-05-30 22:06:00,
2013-05-30 16:11:00,56.6,35.5,29.81,NNW,344,1.0,5.0,45,0.00,,---,0.00,VWS V13.01,2013-05-30 22:11:00,
2013-05-30 16:16:00,56.9,34.7,29.82,NNE,27,1.0,2.0,43,0.00,,---,0.00,VWS V13.01,2013-05-30 22:16:00,
2013-05-30 16:31:00,56.9,34.1,29.82,North,0,1.0,6.0,42,0.00,,---,0.00,VWS V14.01,2013-05-30 22:31:00,
2013-05-30 16:37:00,56.6,33.8,29.83,North,355,9.0,11.0,42,0.00,,---,0.00,VWS V14.01,2013-05-30 22:37:00,
2013-05-30 16:42:00,56.5,33.7,29.83,WNW,286,7.0,9.0,42,0.00,,---,0.00,VWS V14.01,2013-05-30 22:42:00,
2013-05-30 16:47:00,55.7,34.1,29.84,South,186,1.0,6.0,44,0.00,,---,0.00,VWS V14.01,2013-05-30 22:47:00,
2013-05-30 16:52:00,55.7,36.3,29.84,NNE,22,4.0,4.0,48,0.00,,---,0.00,VWS V14.01,2013-05-30 22:52:00,
2013-05-30 16:57:00,56.3,35.8,29.84,NE,46,1.0,3.0,46,0.00,,---,0.00,VWS V14.01,2013-05-30 22:57:00,
2013-05-30 17:02:00,57.3,35.0,29.83,North,10,6.0,6.0,43,0.00,,---,0.00,VWS V14.01,2013-05-30 23:02:00,
2013-05-30 17:07:00,58.0,34.5,29.83,SSW,200,1.0,7.0,41,0.00,,---,0.00,VWS V14.01,2013-05-30 23:07:00,
2013-05-30 17:12:00,56.6,36.1,29.83,WNW,291,1.0,2.0,46,0.00,,---,0.00,VWS V14.01,2013-05-30 23:12:00,
2013-05-30 17:17:00,56.0,33.8,29.84,NNE,26,2.0,4.0,43,0.00,,---,0.00,VWS V14.01,2013-05-30 23:17:00,
2013-05-30 17:22:00,55.9,36.0,29.84,WSW,256,2.0,3.0,47,0.00,,---,0.00,VWS V14.01,2013-05-30 23:22:00,
2013-05-30 17:27:00,56.2,35.2,29.84,North,360,3.0,4.0,45,0.00,,---,0.00,VWS V14.01,2013-05-30 23:27:00,
2013-05-30 17:32:00,56.2,35.7,29.84,North,5,1.0,2.0,46,0.00,,---,0.00,VWS V14.01,2013-05-30 23:32:00,
2013-05-30 17:37:00,56.5,33.7,29.84,South,180,0.0,2.0,42,0.00,,---,0.00,VWS V14.01,2013-05-30 23:37:00,
2013-05-30 17:42:00,56.2,32.2,29.84,SSW,199,0.0,6.0,40,0.00,,---,0.00,VWS V14.01,2013-05-30 23:42:00,
2013-05-30 17:47:00,55.7,33.6,29.84,North,5,0.0,2.0,43,0.00,,---,0.00,VWS V14.01,2013-05-30 23:47:00,
2013-05-30 17:52:00,55.9,33.2,29.84,WSW,242,3.0,3.0,42,0.00,,---,0.00,VWS V14.01,2013-05-30 23:52:00,
2013-05-30 17:57:00,55.9,33.8,29.84,NNE,32,4.0,4.0,43,0.00,,---,0.00,VWS V14.01,2013-05-30 23:57:00,
2013-05-30 18:02:00,56.2,33.4,29.85,NE,50,4.0,4.0,42,0.00,,---,0.00,VWS V14.01,2013-05-31 00:02:00,
2013-05-30 18:07:00,56.5,31.9,29.85,NNE,28,1.0,5.0,39,0.00,,---,0.00,VWS V14.01,2013-05-31 00:07:00,
2013-05-30 18:13:00,56.6,31.3,29.85,SE,142,0.0,4.0,38,0.00,,---,0.00,VWS V14.01,2013-05-31 00:13:00,
2013-05-30 18:18:00,56.5,31.2,29.84,WNW,292,1.0,1.0,38,0.00,,---,0.00,VWS V14.01,2013-05-31 00:18:00,
2013-05-30 18:23:00,55.9,32.0,29.84,NE,40,4.0,4.0,40,0.00,,---,0.00,VWS V14.01,2013-05-31 00:23:00,
2013-05-30 18:28:00,55.6,31.7,29.84,South,169,1.0,5.0,40,0.00,,---,0.00,VWS V14.01,2013-05-31 00:28:00,
2013-05-30 18:33:00,55.6,34.0,29.85,NE,39,1.0,7.0,44,0.00,,---,0.00,VWS V14.01,2013-05-31 00:33:00,
2013-05-30 18:38:00,55.4,31.5,29.85,WSW,238,4.0,4.0,40,0.00,,---,0.00,VWS V14.01,2013-05-31 00:38:00,
2013-05-30 18:43:00,55.0,31.8,29.85,ENE,65,0.0,5.0,41,0.00,,---,0.00,VWS V14.01,2013-05-31 00:43:00,
2013-05-30 18:48:00,54.8,31.0,29.86,NNW,348,2.0,10.0,40,0.00,,---,0.00,VWS V14.01,2013-05-31 00:48:00,
2013-05-30 18:53:00,54.8,31.0,29.86,East,88,3.0,7.0,40,0.00,,---,0.00,VWS V14.01,2013-05-31 00:53:00,
2013-05-30 18:58:00,54.5,31.3,29.86,West,274,0.0,7.0,41,0.00,,---,0.00,VWS V14.01,2013-05-31 00:58:00,
2013-05-30 19:03:00,53.9,31.9,29.87,WNW,285,1.0,2.0,43,0.00,,---,0.00,VWS V14.01,2013-05-31 01:03:00,
2013-05-30 19:08:00,53.6,31.7,29.87,NNE,27,1.0,4.0,43,0.00,,---,0.00,VWS V14.01,2013-05-31 01:08:00,
2013-05-30 19:13:00,53.5,31.6,29.87,WSW,241,2.0,10.0,43,0.00,,---,0.00,VWS V14.01,2013-05-31 01:13:00,
2013-05-30 19:18:00,53.3,32.0,29.87,NE,40,1.0,3.0,44,0.00,,---,0.00,VWS V14.01,2013-05-31 01:18:00,
2013-05-30 19:23:00,53.1,32.9,29.87,NW,319,1.0,6.0,46,0.00,,---,0.00,VWS V14.01,2013-05-31 01:23:00,
2013-05-30 19:28:00,53.1,32.3,29.87,NNE,32,0.0,0.0,45,0.00,,---,0.00,VWS V14.01,2013-05-31 01:28:00,
2013-05-30 19:33:00,52.9,32.2,29.88,South,189,0.0,2.0,45,0.00,,---,0.00,VWS V14.01,2013-05-31 01:33:00,
2013-05-30 19:38:00,52.5,32.9,29.88,SW,220,0.0,1.0,47,0.00,,---,0.00,VWS V14.01,2013-05-31 01:38:00,
2013-05-30 19:43:00,52.3,32.2,29.88,NW,309,1.0,2.0,46,0.00,,---,0.00,VWS V14.01,2013-05-31 01:43:00,
2013-05-30 19:48:00,52.3,31.6,29.88,NE,55,0.0,2.0,45,0.00,,---,0.00,VWS V14.01,2013-05-31 01:48:00,
2013-05-30 19:53:00,52.2,29.8,29.88,WSW,238,2.0,5.0,42,0.00,,---,0.00,VWS V14.01,2013-05-31 01:53:00,
2013-05-30 19:59:00,52.0,30.2,29.88,NNE,19,0.0,3.0,43,0.00,,---,0.00,VWS V14.01,2013-05-31 01:59:00,
2013-05-30 20:04:00,51.7,31.1,29.89,North,5,0.0,0.0,45,0.00,,---,0.00,VWS V14.01,2013-05-31 02:04:00,
2013-05-30 20:09:00,51.7,31.1,29.89,NE,49,0.0,1.0,45,0.00,,---,0.00,VWS V14.01,2013-05-31 02:09:00,
2013-05-30 20:14:00,51.6,31.0,29.89,NNE,25,0.0,3.0,45,0.00,,---,0.00,VWS V14.01,2013-05-31 02:14:00,
2013-05-30 20:19:00,51.4,31.3,29.89,ENE,71,0.0,2.0,46,0.00,,---,0.00,VWS V14.01,2013-05-31 02:19:00,
2013-05-30 20:24:00,51.1,30.5,29.89,NW,319,0.0,4.0,45,0.00,,---,0.00,VWS V14.01,2013-05-31 02:24:00,
2013-05-30 20:29:00,51.1,31.1,29.89,NW,317,0.0,3.0,46,0.00,,---,0.00,VWS V14.01,2013-05-31 02:29:00,
2013-05-30 20:34:00,51.0,32.5,29.89,NNW,328,2.0,3.0,49,0.00,,---,0.00,VWS V14.01,2013-05-31 02:34:00,
2013-05-30 20:39:00,50.8,31.8,29.89,NE,52,0.0,5.0,48,0.00,,---,0.00,VWS V14.01,2013-05-31 02:39:00,
2013-05-30 20:44:00,50.7,31.7,29.89,ENE,76,0.0,2.0,48,0.00,,---,0.00,VWS V14.01,2013-05-31 02:44:00,
2013-05-30 20:49:00,50.4,31.5,29.89,NNE,21,0.0,2.0,48,0.00,,---,0.00,VWS V14.01,2013-05-31 02:49:00,
2013-05-30 20:54:00,50.2,30.8,29.89,East,82,0.0,4.0,47,0.00,,---,0.00,VWS V14.01,2013-05-31 02:54:00,
2013-05-30 20:59:00,50.1,31.2,29.89,East,91,0.0,6.0,48,0.00,,---,0.00,VWS V14.01,2013-05-31 02:59:00,
2013-05-30 21:04:00,49.9,30.5,29.91,NNE,18,0.0,7.0,47,0.00,,---,0.00,VWS V14.01,2013-05-31 03:04:00,
2013-05-30 21:09:00,49.8,30.9,29.91,NW,312,2.0,5.0,48,0.00,,---,0.00,VWS V14.01,2013-05-31 03:09:00,
2013-05-30 21:14:00,49.6,31.2,29.91,NNE,31,4.0,4.0,49,0.00,,---,0.00,VWS V14.01,2013-05-31 03:14:00,
2013-05-30 21:19:00,49.5,30.6,29.90,NNW,333,3.0,5.0,48,0.00,,---,0.00,VWS V14.01,2013-05-31 03:19:00,
2013-05-30 21:24:00,49.4,31.6,29.90,East,86,0.0,8.0,50,0.00,,---,0.00,VWS V14.01,2013-05-31 03:24:00,
2013-05-30 21:29:00,49.2,31.4,29.90,WNW,301,1.0,5.0,50,0.00,,---,0.00,VWS V14.01,2013-05-31 03:29:00,
2013-05-30 21:34:00,49.2,30.9,29.91,ENE,59,1.0,2.0,49,0.00,,---,0.00,VWS V14.01,2013-05-31 03:34:00,
2013-05-30 21:39:00,49.1,30.8,29.91,West,276,0.0,4.0,49,0.00,,---,0.00,VWS V14.01,2013-05-31 03:39:00,
2013-05-30 21:45:00,49.1,30.8,29.91,NW,311,1.0,5.0,49,0.00,,---,0.00,VWS V14.01,2013-05-31 03:45:00,
2013-05-30 21:50:00,49.1,30.8,29.91,ENE,60,0.0,4.0,49,0.00,,---,0.00,VWS V14.01,2013-05-31 03:50:00,
2013-05-30 21:55:00,49.1,30.8,29.91,WSW,247,0.0,6.0,49,0.00,,---,0.00,VWS V14.01,2013-05-31 03:55:00,
2013-05-30 22:00:00,48.9,31.6,29.91,East,84,3.0,3.0,51,0.00,,---,0.00,VWS V14.01,2013-05-31 04:00:00,
2013-05-30 22:01:00,48.9,31.6,29.91,ENE,75,0.0,3.0,51,0.00,,---,0.00,VWS V14.01,2013-05-31 04:01:00,
2013-05-30 22:02:00,48.9,31.1,29.91,SE,138,0.0,2.0,50,0.00,,---,0.00,VWS V14.01,2013-05-31 04:02:00,
2013-05-30 22:06:00,48.9,30.6,29.91,East,87,3.0,3.0,49,0.00,,---,0.00,VWS V14.01,2013-05-31 04:06:00,
2013-05-30 22:11:00,48.9,31.1,29.91,NNE,17,0.0,0.0,50,0.00,,---,0.00,VWS V14.01,2013-05-31 04:11:00,
2013-05-30 22:16:00,48.8,31.0,29.91,East,82,0.0,0.0,50,0.00,,---,0.00,VWS V14.01,2013-05-31 04:16:00,
2013-05-30 22:21:00,48.8,31.5,29.91,NNW,340,4.0,4.0,51,0.00,,---,0.00,VWS V14.01,2013-05-31 04:21:00,
2013-05-30 22:26:00,48.6,30.8,29.91,North,360,4.0,4.0,50,0.00,,---,0.00,VWS V14.01,2013-05-31 04:26:00,
2013-05-30 22:31:00,48.6,30.8,29.91,ENE,60,0.0,2.0,50,0.00,,---,0.00,VWS V14.01,2013-05-31 04:31:00,
2013-05-30 22:36:00,48.5,30.7,29.91,NNE,30,0.0,1.0,50,0.00,,---,0.00,VWS V14.01,2013-05-31 04:36:00,
2013-05-30 22:42:00,48.5,31.2,29.91,NE,35,0.0,1.0,51,0.00,,---,0.00,VWS V14.01,2013-05-31 04:42:00,
2013-05-30 22:47:00,48.3,32.0,29.92,NNW,333,1.0,1.0,53,0.00,,---,0.00,VWS V14.01,2013-05-31 04:47:00,
2013-05-30 22:52:00,48.3,29.5,29.92,NE,44,0.0,0.0,48,0.00,,---,0.00,VWS V14.01,2013-05-31 04:52:00,
2013-05-30 22:57:00,48.2,30.0,29.92,NE,54,0.0,1.0,49,0.00,,---,0.00,VWS V14.01,2013-05-31 04:57:00,
2013-05-30 23:02:00,48.2,30.0,29.92,NNW,331,1.0,4.0,49,0.00,,---,0.00,VWS V14.01,2013-05-31 05:02:00,
2013-05-30 23:07:00,48.2,30.0,29.92,NNE,14,1.0,1.0,49,0.00,,---,0.00,VWS V14.01,2013-05-31 05:07:00,
2013-05-30 23:12:00,48.0,30.3,29.92,NNE,32,0.0,0.0,50,0.00,,---,0.00,VWS V14.01,2013-05-31 05:12:00,
2013-05-30 23:17:00,47.9,30.2,29.91,North,9,0.0,3.0,50,0.00,,---,0.00,VWS V14.01,2013-05-31 05:17:00,
2013-05-30 23:22:00,47.7,31.4,29.91,North,9,0.0,0.0,53,0.00,,---,0.00,VWS V14.01,2013-05-31 05:22:00,
2013-05-30 23:27:00,47.6,30.4,29.91,NW,319,5.0,7.0,51,0.00,,---,0.00,VWS V14.01,2013-05-31 05:27:00,
2013-05-30 23:32:00,47.6,30.9,29.91,NNE,32,0.0,1.0,52,0.00,,---,0.00,VWS V14.01,2013-05-31 05:32:00,
2013-05-30 23:37:00,47.6,30.9,29.91,NNE,22,3.0,3.0,52,0.00,,---,0.00,VWS V14.01,2013-05-31 05:37:00,
2013-05-30 23:42:00,47.4,31.1,29.91,ENE,69,3.0,3.0,53,0.00,,---,0.00,VWS V14.01,2013-05-31 05:42:00,
2013-05-30 23:47:00,47.4,30.7,29.92,SW,218,2.0,2.0,52,0.00,,---,0.00,VWS V14.01,2013-05-31 05:47:00,
2013-05-30 23:52:00,47.3,31.0,29.92,NNW,340,0.0,0.0,53,0.00,,---,0.00,VWS V14.01,2013-05-31 05:52:00,
2013-05-30 23:57:00,47.3,31.5,29.92,East,80,0.0,1.0,54,0.00,,---,0.00,VWS V14.01,2013-05-31 05:57:00,